createdAt,value
2023-05-06T00:02:15.001Z,25.50
2023-05-06T00:04:41.898Z,25.77
2023-05-06T00:07:08.676Z,26.63
2023-05-06T00:09:35.443Z,25.53
2023-05-06T00:12:02.151Z,29.17
2023-05-06T00:14:28.902Z,24.27
2023-05-06T00:16:55.721Z,28.20
2023-05-06T00:19:22.674Z,27.57
2023-05-06T00:21:49.479Z,28.10
2023-05-06T00:24:16.194Z,27.10
2023-05-06T00:26:42.957Z,29.30
2023-05-06T00:29:09.812Z,73.80
2023-05-06T00:31:36.524Z,31.40
2023-05-06T00:34:03.294Z,28.37
2023-05-06T00:36:30.116Z,29.23
2023-05-06T00:38:57.221Z,30.23
2023-05-06T00:41:23.953Z,37.03
2023-05-06T00:43:50.793Z,33.27
2023-05-06T00:46:18.477Z,29.60
2023-05-06T00:48:45.429Z,31.40
2023-05-06T00:51:14.595Z,32.70
2023-05-06T00:53:41.649Z,33.00
2023-05-06T00:56:08.555Z,38.83
2023-05-06T00:58:36.110Z,33.30
2023-05-06T01:01:03.229Z,36.40
2023-05-06T01:03:31.363Z,32.53
2023-05-06T01:06:40.405Z,38.53
2023-05-06T01:09:38.420Z,34.27
2023-05-06T01:12:27.192Z,33.93
2023-05-06T01:15:14.891Z,35.07
2023-05-06T01:17:46.271Z,33.30
2023-05-06T01:20:13.360Z,37.67
2023-05-06T01:22:40.189Z,35.00
2023-05-06T01:25:07.668Z,33.07
2023-05-06T01:27:34.866Z,38.27
2023-05-06T01:30:02.349Z,41.67
2023-05-06T01:32:34.697Z,50.00
2023-05-06T01:35:19.965Z,44.73
2023-05-06T01:38:00.254Z,39.63
2023-05-06T01:40:30.253Z,40.10
2023-05-06T01:42:57.496Z,45.43
2023-05-06T01:45:27.999Z,47.10
2023-05-06T01:47:55.650Z,47.40
2023-05-06T01:50:22.546Z,52.73
2023-05-06T01:53:02.434Z,75.60
2023-05-06T01:55:29.442Z,59.43
2023-05-06T01:57:56.816Z,54.57
2023-05-06T02:00:27.043Z,64.93
2023-05-06T02:02:53.987Z,85.00
2023-05-06T02:05:20.833Z,86.23
2023-05-06T02:07:47.632Z,79.37
2023-05-06T02:10:14.384Z,76.60
2023-05-06T02:12:41.194Z,49.53
2023-05-06T02:15:08.769Z,55.00
2023-05-06T02:17:37.584Z,52.20
2023-05-06T02:20:05.974Z,68.63
2023-05-06T02:22:33.159Z,55.17
2023-05-06T02:24:59.914Z,63.93
2023-05-06T02:27:26.733Z,50.90
2023-05-06T02:29:53.492Z,46.03
2023-05-06T02:32:20.258Z,52.37
2023-05-06T02:34:47.396Z,80.17
2023-05-06T02:37:14.150Z,46.40
2023-05-06T02:39:40.836Z,61.83
2023-05-06T02:42:07.784Z,57.27
2023-05-06T02:44:34.873Z,46.10
2023-05-06T02:47:01.625Z,49.53
2023-05-06T02:49:28.787Z,43.20
2023-05-06T02:51:55.585Z,47.73
2023-05-06T02:54:22.316Z,78.93
2023-05-06T02:56:49.071Z,60.23
2023-05-06T02:59:16.410Z,47.63
2023-05-06T03:01:43.129Z,58.60
2023-05-06T03:04:10.325Z,70.03
2023-05-06T03:06:37.122Z,58.30
2023-05-06T03:09:05.046Z,69.87
2023-05-06T03:11:32.931Z,47.30
2023-05-06T03:13:59.657Z,55.20
2023-05-06T03:16:26.490Z,55.30
2023-05-06T03:18:53.272Z,54.67
2023-05-06T03:21:20.103Z,50.60
2023-05-06T03:23:46.897Z,65.60
2023-05-06T03:26:14.062Z,55.40
2023-05-06T03:28:43.439Z,48.87
2023-05-06T03:31:10.326Z,55.93
2023-05-06T03:33:37.104Z,51.73
2023-05-06T03:36:04.447Z,55.00
2023-05-06T03:38:31.195Z,63.70
2023-05-06T03:40:57.956Z,62.13
2023-05-06T03:43:24.736Z,47.40
2023-05-06T03:45:51.514Z,58.17
2023-05-06T03:48:18.281Z,100.57
2023-05-06T03:50:45.175Z,93.00
2023-05-06T03:53:12.424Z,83.03
2023-05-06T03:55:39.208Z,63.43
2023-05-06T03:58:06.118Z,57.53
2023-05-06T04:00:34.105Z,244.37
2023-05-06T04:03:00.995Z,146.00
2023-05-06T04:05:28.210Z,92.83
2023-05-06T04:07:55.392Z,63.50
2023-05-06T04:10:22.165Z,78.67
2023-05-06T04:12:49.329Z,85.30
2023-05-06T04:15:16.208Z,137.83
2023-05-06T04:17:42.902Z,121.13
2023-05-06T04:20:11.551Z,139.23
2023-05-06T04:22:38.751Z,141.47
2023-05-06T04:25:06.673Z,99.67
2023-05-06T04:27:33.427Z,131.70
2023-05-06T04:30:00.268Z,170.30
2023-05-06T04:32:27.042Z,304.17
2023-05-06T04:34:54.116Z,46.87
2023-05-06T04:37:21.161Z,151.90
2023-05-06T04:39:48.764Z,49.80
2023-05-06T04:42:16.246Z,47.60
2023-05-06T04:44:43.462Z,52.70
2023-05-06T04:47:10.253Z,59.73
2023-05-06T04:49:36.952Z,56.20
2023-05-06T04:52:04.210Z,53.47
2023-05-06T04:54:30.976Z,51.63
2023-05-06T04:56:57.693Z,57.90
2023-05-06T04:59:24.467Z,47.47
2023-05-06T05:01:51.265Z,78.00
2023-05-06T05:04:18.038Z,48.03
2023-05-06T05:06:44.797Z,89.70
2023-05-06T05:09:11.482Z,42.33
2023-05-06T05:11:38.430Z,61.03
2023-05-06T05:14:05.363Z,66.20
2023-05-06T05:16:32.229Z,53.70
2023-05-06T05:19:00.340Z,71.10
2023-05-06T05:21:29.005Z,56.93
2023-05-06T05:23:55.707Z,44.77
2023-05-06T05:26:22.444Z,43.27
2023-05-06T05:28:49.125Z,33.93
2023-05-06T05:31:15.908Z,40.50
2023-05-06T05:33:42.642Z,40.80
2023-05-06T05:36:09.530Z,38.80
2023-05-06T05:38:36.345Z,40.57
2023-05-06T05:41:03.309Z,41.63
2023-05-06T05:43:31.350Z,39.83
2023-05-06T05:45:58.201Z,40.20
2023-05-06T05:48:24.939Z,36.13
2023-05-06T05:50:51.722Z,38.77
2023-05-06T05:53:18.502Z,38.43
2023-05-06T05:55:45.292Z,39.80
2023-05-06T05:58:12.091Z,38.10
2023-05-06T06:00:38.839Z,35.23
2023-05-06T06:03:06.182Z,35.87
2023-05-06T06:05:33.329Z,37.90
2023-05-06T06:08:02.239Z,37.50
2023-05-06T06:10:30.613Z,32.87
2023-05-06T06:12:57.640Z,37.57
2023-05-06T06:15:24.469Z,37.33
2023-05-06T06:17:54.734Z,42.40
2023-05-06T06:20:21.597Z,35.13
2023-05-06T06:22:48.361Z,32.33
2023-05-06T06:25:15.208Z,36.43
2023-05-06T06:27:41.999Z,36.77
2023-05-06T06:30:09.192Z,31.50
2023-05-06T06:32:35.953Z,33.20
2023-05-06T06:35:02.758Z,32.50
2023-05-06T06:37:29.466Z,30.20
2023-05-06T06:39:56.180Z,38.40
2023-05-06T06:42:23.253Z,33.10
2023-05-06T06:44:49.974Z,33.10
2023-05-06T06:47:16.702Z,30.30
2023-05-06T06:49:43.503Z,29.33
2023-05-06T06:52:10.211Z,31.00
2023-05-06T06:54:38.772Z,30.40
2023-05-06T06:57:06.953Z,28.67
2023-05-06T06:59:33.772Z,32.77
2023-05-06T07:02:00.918Z,27.17
2023-05-06T07:04:27.717Z,28.43
2023-05-06T07:06:54.568Z,31.60
2023-05-06T07:09:21.480Z,30.87
2023-05-06T07:11:48.166Z,27.67
2023-05-06T07:14:14.873Z,32.13
2023-05-06T07:16:42.972Z,29.97
2023-05-06T07:19:11.330Z,26.57
2023-05-06T07:21:38.030Z,27.10
2023-05-06T07:24:05.152Z,26.77
2023-05-06T07:26:35.844Z,27.80
2023-05-06T07:29:04.146Z,24.57
2023-05-06T07:31:32.667Z,23.70
2023-05-06T07:33:59.805Z,26.03
2023-05-06T07:36:29.732Z,27.40
2023-05-06T07:38:56.661Z,25.50
2023-05-06T07:41:23.341Z,28.03
2023-05-06T07:43:50.090Z,24.70
2023-05-06T07:46:16.945Z,25.83
2023-05-06T07:48:43.797Z,23.20
2023-05-06T07:51:10.644Z,26.60
2023-05-06T07:53:40.084Z,27.07
2023-05-06T07:56:07.214Z,26.00
2023-05-06T07:58:34.023Z,26.00
2023-05-06T08:01:00.861Z,26.90
2023-05-06T08:03:27.787Z,21.97
2023-05-06T08:05:55.286Z,22.33
2023-05-06T08:08:23.085Z,23.30
2023-05-06T08:10:49.802Z,19.87
2023-05-06T08:13:16.607Z,20.97
2023-05-06T08:15:43.407Z,27.63
2023-05-06T08:18:21.871Z,19.73
2023-05-06T08:20:49.424Z,22.40
2023-05-06T08:23:16.173Z,22.20
2023-05-06T08:25:43.063Z,23.23
2023-05-06T08:28:09.901Z,21.33
2023-05-06T08:30:36.839Z,18.80
2023-05-06T08:33:03.886Z,18.70
2023-05-06T08:35:30.805Z,18.80
2023-05-06T08:37:57.593Z,14.80
2023-05-06T08:40:27.044Z,26.13
2023-05-06T08:42:57.411Z,17.13
2023-05-06T08:45:24.208Z,21.07
2023-05-06T08:47:51.692Z,16.13
2023-05-06T08:50:18.598Z,18.20
2023-05-06T08:52:45.535Z,17.57
2023-05-06T08:55:12.701Z,20.20
2023-05-06T08:57:40.463Z,23.30
2023-05-06T09:00:11.004Z,16.97
2023-05-06T09:02:40.473Z,18.90
2023-05-06T09:05:10.214Z,18.33
2023-05-06T09:07:37.434Z,17.23
2023-05-06T09:10:13.128Z,17.13
2023-05-06T09:12:40.247Z,13.67
2023-05-06T09:15:07.797Z,16.33
2023-05-06T09:17:34.820Z,14.50
2023-05-06T09:20:01.840Z,14.00
2023-05-06T09:22:30.880Z,16.47
2023-05-06T09:24:58.853Z,12.60
2023-05-06T09:27:34.027Z,13.10
2023-05-06T09:30:09.606Z,13.27
2023-05-06T09:32:39.307Z,16.23
2023-05-06T09:35:08.461Z,13.80
2023-05-06T09:37:35.486Z,12.80
2023-05-06T09:40:02.275Z,12.57
2023-05-06T09:42:30.390Z,13.63
2023-05-06T09:45:01.543Z,10.60
2023-05-06T09:47:34.184Z,12.40
2023-05-06T09:50:04.509Z,11.50
2023-05-06T09:52:31.648Z,15.20
2023-05-06T09:54:58.860Z,12.97
2023-05-06T09:57:26.783Z,12.33
2023-05-06T09:59:55.457Z,12.80
2023-05-06T10:02:23.649Z,13.67
2023-05-06T10:04:52.989Z,12.63
2023-05-06T10:07:22.817Z,12.67
2023-05-06T10:09:51.410Z,13.20
2023-05-06T10:12:20.140Z,16.20
2023-05-06T10:14:47.571Z,13.60
2023-05-06T10:17:14.765Z,14.10
2023-05-06T10:19:46.045Z,14.17
2023-05-06T10:22:30.965Z,11.97
2023-05-06T10:25:12.464Z,11.93
2023-05-06T10:27:43.809Z,14.70
2023-05-06T10:30:14.022Z,13.00
2023-05-06T10:32:43.222Z,13.47
2023-05-06T10:35:22.900Z,12.70
2023-05-06T10:37:52.230Z,13.80
2023-05-06T10:40:22.404Z,15.43
2023-05-06T10:42:49.203Z,12.60
2023-05-06T10:45:16.628Z,12.23
2023-05-06T10:47:58.594Z,13.33
2023-05-06T10:50:26.865Z,11.63
2023-05-06T10:52:59.086Z,15.17
2023-05-06T10:55:29.933Z,10.77
2023-05-06T10:58:01.606Z,13.00
2023-05-06T11:00:33.047Z,11.50
2023-05-06T11:03:12.743Z,12.43
2023-05-06T11:05:49.285Z,10.63
2023-05-06T11:08:27.331Z,11.23
2023-05-06T11:10:54.810Z,13.57
2023-05-06T11:13:29.055Z,8.83
2023-05-06T11:15:57.173Z,12.03
2023-05-06T11:18:27.602Z,10.30
2023-05-06T11:21:00.882Z,12.83
2023-05-06T11:23:43.035Z,11.20
2023-05-06T11:26:11.352Z,11.50
2023-05-06T11:28:39.181Z,12.40
2023-05-06T11:31:07.105Z,17.20
2023-05-06T11:33:35.830Z,12.50
2023-05-06T11:36:03.937Z,9.47
2023-05-06T11:38:47.908Z,9.30
2023-05-06T11:41:17.153Z,11.03
2023-05-06T11:43:47.441Z,10.60
2023-05-06T11:46:14.280Z,8.10
2023-05-06T11:48:41.070Z,9.30
2023-05-06T11:51:08.268Z,8.03
2023-05-06T11:53:35.229Z,8.40
2023-05-06T11:56:02.313Z,9.10
2023-05-06T11:58:30.362Z,9.57
2023-05-06T12:00:58.879Z,10.33
2023-05-06T12:03:27.408Z,9.17
2023-05-06T12:05:55.056Z,10.03
2023-05-06T12:08:32.538Z,7.10
2023-05-06T12:11:07.249Z,10.37
2023-05-06T12:13:37.908Z,8.43
2023-05-06T12:16:07.716Z,8.83
2023-05-06T12:18:34.597Z,8.63
2023-05-06T12:21:06.018Z,7.13
2023-05-06T12:23:32.961Z,10.40
2023-05-06T12:26:02.627Z,6.60
2023-05-06T12:28:30.599Z,7.10
2023-05-06T12:30:57.491Z,7.03
2023-05-06T12:33:24.284Z,7.77
2023-05-06T12:35:57.052Z,7.53
2023-05-06T12:38:23.847Z,6.13
2023-05-06T12:40:55.224Z,10.07
2023-05-06T12:43:30.681Z,7.80
2023-05-06T12:46:08.767Z,25.83
2023-05-06T12:48:35.706Z,6.77
2023-05-06T12:51:19.003Z,6.77
2023-05-06T12:53:46.112Z,11.30
2023-05-06T12:56:13.095Z,7.63
2023-05-06T12:58:39.910Z,6.80
2023-05-06T13:01:07.717Z,5.07
2023-05-06T13:03:38.328Z,10.00
2023-05-06T13:06:05.869Z,7.03
2023-05-06T13:08:32.706Z,10.30
2023-05-06T13:11:01.625Z,6.60
2023-05-06T13:13:28.720Z,5.07
2023-05-06T13:15:56.444Z,5.33
2023-05-06T13:18:23.309Z,6.77
2023-05-06T13:20:51.676Z,6.30
2023-05-06T13:23:19.508Z,7.00
2023-05-06T13:26:02.957Z,7.07
2023-05-06T13:28:32.650Z,9.30
2023-05-06T13:30:59.525Z,6.97
2023-05-06T13:33:26.305Z,7.93
2023-05-06T13:35:53.119Z,6.37
2023-05-06T13:38:19.894Z,8.27
2023-05-06T13:40:53.737Z,6.30
2023-05-06T13:43:21.384Z,7.80
2023-05-06T13:45:48.301Z,6.03
2023-05-06T13:48:15.253Z,6.37
2023-05-06T13:50:42.864Z,7.83
2023-05-06T13:53:10.632Z,7.50
2023-05-06T13:55:37.648Z,7.07
2023-05-06T13:58:06.065Z,8.40
2023-05-06T14:00:33.712Z,8.50
2023-05-06T14:03:00.721Z,8.90
2023-05-06T14:05:27.768Z,14.43
2023-05-06T14:07:54.535Z,9.07
2023-05-06T14:10:21.290Z,7.17
2023-05-06T14:12:48.291Z,6.50
2023-05-06T14:15:15.199Z,8.17
2023-05-06T14:17:42.023Z,6.73
2023-05-06T14:20:09.649Z,9.20
2023-05-06T14:22:42.565Z,5.97
2023-05-06T14:25:10.108Z,8.10
2023-05-06T14:27:37.175Z,8.17
2023-05-06T14:30:09.360Z,7.50
2023-05-06T14:32:36.615Z,6.07
2023-05-06T14:35:04.415Z,6.83
2023-05-06T14:37:31.157Z,6.70
2023-05-06T14:39:57.985Z,6.57
2023-05-06T14:42:24.781Z,7.57
2023-05-06T14:44:51.535Z,6.93
2023-05-06T14:47:18.996Z,10.73
2023-05-06T14:49:45.816Z,6.80
2023-05-06T14:52:12.640Z,8.57
2023-05-06T14:54:42.373Z,9.73
2023-05-06T14:57:10.176Z,6.17
2023-05-06T14:59:38.019Z,9.87
2023-05-06T15:02:09.086Z,7.50
2023-05-06T15:04:36.756Z,8.00
2023-05-06T15:07:03.824Z,7.87
2023-05-06T15:09:31.058Z,5.53
2023-05-06T15:11:58.062Z,9.80
2023-05-06T15:14:24.847Z,7.33
2023-05-06T15:16:55.894Z,9.13
2023-05-06T15:19:22.843Z,17.47
2023-05-06T15:21:49.703Z,8.10
2023-05-06T15:24:16.507Z,6.67
2023-05-06T15:26:43.395Z,8.83
2023-05-06T15:29:10.249Z,6.20
2023-05-06T15:31:39.400Z,7.83
2023-05-06T15:34:07.166Z,5.70
2023-05-06T15:36:33.944Z,9.23
2023-05-06T15:39:01.199Z,7.13
2023-05-06T15:41:30.736Z,6.77
2023-05-06T15:43:58.542Z,10.60
2023-05-06T15:46:26.252Z,5.77
2023-05-06T15:49:08.943Z,5.70
2023-05-06T15:51:39.998Z,8.50
2023-05-06T15:54:06.964Z,9.80
2023-05-06T15:56:39.395Z,6.53
2023-05-06T15:59:08.392Z,7.20
2023-05-06T16:02:18.855Z,7.53
2023-05-06T16:04:23.014Z,7.83
2023-05-06T16:06:50.223Z,10.30
2023-05-06T16:09:17.074Z,7.57
2023-05-06T16:11:43.861Z,7.90
2023-05-06T16:14:10.679Z,11.03
2023-05-06T16:16:37.692Z,8.93
2023-05-06T16:19:04.843Z,7.80
2023-05-06T16:21:31.933Z,11.37
2023-05-06T16:23:58.771Z,11.50
2023-05-06T16:26:25.602Z,7.80
2023-05-06T16:28:53.741Z,8.17
2023-05-06T16:31:20.831Z,8.57
2023-05-06T16:33:47.760Z,9.33
2023-05-06T16:36:14.876Z,9.30
2023-05-06T16:38:41.639Z,12.80
2023-05-06T16:41:08.355Z,11.57
2023-05-06T16:43:35.088Z,8.00
2023-05-06T16:46:01.927Z,9.53
2023-05-06T16:48:28.948Z,18.30
2023-05-06T16:50:55.972Z,12.60
2023-05-06T16:53:22.732Z,11.30
2023-05-06T16:55:50.113Z,13.43
2023-05-06T16:58:16.867Z,7.90
2023-05-06T17:00:43.767Z,8.40
2023-05-06T17:03:11.230Z,10.60
2023-05-06T17:05:38.206Z,10.30
2023-05-06T17:08:05.536Z,8.70
2023-05-06T17:10:32.349Z,10.87
2023-05-06T17:12:59.558Z,8.60
2023-05-06T17:15:26.627Z,8.93
2023-05-06T17:17:54.023Z,11.40
2023-05-06T17:20:20.977Z,13.00
2023-05-06T17:22:47.935Z,8.43
2023-05-06T17:25:15.167Z,16.27
2023-05-06T17:27:41.939Z,8.97
2023-05-06T17:30:12.418Z,12.60
2023-05-06T17:32:39.585Z,15.33
2023-05-06T17:35:07.341Z,10.80
2023-05-06T17:37:34.758Z,10.43
2023-05-06T17:40:02.328Z,13.83
2023-05-06T17:42:30.204Z,11.47
2023-05-06T17:44:56.953Z,10.87
2023-05-06T17:47:23.949Z,10.93
2023-05-06T17:49:53.917Z,8.73
2023-05-06T17:52:20.894Z,12.07
2023-05-06T17:55:05.795Z,12.73
2023-05-06T17:57:37.312Z,14.87
2023-05-06T18:00:04.490Z,14.73
2023-05-06T18:02:31.500Z,14.10
2023-05-06T18:04:58.354Z,12.37
2023-05-06T18:07:25.281Z,15.33
2023-05-06T18:09:52.344Z,13.40
2023-05-06T18:12:19.581Z,12.63
2023-05-06T18:14:46.958Z,11.60
2023-05-06T18:17:13.774Z,12.00
2023-05-06T18:19:40.576Z,12.47
2023-05-06T18:22:07.290Z,14.80
2023-05-06T18:24:34.691Z,12.43
2023-05-06T18:27:02.321Z,11.97
2023-05-06T18:29:30.383Z,13.00
2023-05-06T18:32:42.572Z,11.10
2023-05-06T18:35:10.984Z,19.17
2023-05-06T18:37:38.516Z,15.00
2023-05-06T18:40:06.163Z,17.90
2023-05-06T18:42:33.842Z,17.13
2023-05-06T18:45:02.855Z,12.00
2023-05-06T18:47:29.790Z,12.53
2023-05-06T18:49:57.617Z,13.03
2023-05-06T18:52:24.380Z,12.90
2023-05-06T18:54:51.088Z,12.63
2023-05-06T18:57:19.561Z,11.87
2023-05-06T18:59:47.116Z,10.57
2023-05-06T19:02:14.088Z,12.13
2023-05-06T19:04:40.825Z,11.75
2023-05-06T19:07:07.790Z,14.27
2023-05-06T19:09:37.077Z,11.50
2023-05-06T19:12:04.499Z,11.67
2023-05-06T19:14:37.517Z,10.23
2023-05-06T19:17:04.961Z,13.30
2023-05-06T19:19:31.929Z,13.70
2023-05-06T19:21:59.763Z,13.30
2023-05-06T19:24:26.759Z,11.37
2023-05-06T19:26:53.508Z,12.80
2023-05-06T19:29:20.272Z,10.67
2023-05-06T19:31:46.975Z,20.33
2023-05-06T19:34:13.730Z,15.30
2023-05-06T19:36:40.503Z,11.03
2023-05-06T19:39:07.249Z,14.30
2023-05-06T19:41:34.072Z,11.80
2023-05-06T19:44:00.868Z,13.30
2023-05-06T19:46:27.654Z,11.27
2023-05-06T19:48:54.431Z,12.57
2023-05-06T19:51:21.345Z,14.60
2023-05-06T19:53:49.101Z,11.57
2023-05-06T19:56:17.169Z,16.83
2023-05-06T19:58:44.300Z,13.63
2023-05-06T20:01:11.105Z,11.87
2023-05-06T20:03:38.636Z,17.90
2023-05-06T20:06:06.488Z,18.93
2023-05-06T20:08:33.411Z,15.80
2023-05-06T20:11:00.283Z,19.83
2023-05-06T20:13:27.247Z,15.33
2023-05-06T20:15:54.976Z,16.67
2023-05-06T20:18:21.981Z,25.43
2023-05-06T20:20:48.787Z,21.87
2023-05-06T20:23:15.712Z,20.43
2023-05-06T20:25:42.428Z,27.37
2023-05-06T20:28:09.330Z,29.63
2023-05-06T20:30:36.232Z,31.83
2023-05-06T20:33:03.125Z,26.60
2023-05-06T20:35:29.920Z,25.90
2023-05-06T20:37:56.673Z,28.23
2023-05-06T20:40:23.512Z,25.80
2023-05-06T20:42:50.321Z,29.70
2023-05-06T20:45:17.260Z,25.87
2023-05-06T20:47:44.725Z,25.60
2023-05-06T20:50:16.916Z,30.50
2023-05-06T20:52:45.930Z,27.67
2023-05-06T20:55:16.131Z,28.30
2023-05-06T20:57:46.509Z,29.50
2023-05-06T21:00:13.574Z,36.80
2023-05-06T21:02:41.870Z,28.13
2023-05-06T21:05:10.164Z,32.27
2023-05-06T21:07:37.213Z,33.27
2023-05-06T21:10:05.780Z,37.03
2023-05-06T21:12:33.511Z,26.73
2023-05-06T21:15:00.907Z,36.10
2023-05-06T21:17:28.308Z,30.43
2023-05-06T21:19:55.228Z,29.23
2023-05-06T21:22:23.481Z,29.80
2023-05-06T21:24:51.039Z,27.70
2023-05-06T21:27:17.885Z,34.43
2023-05-06T21:29:44.604Z,29.60
2023-05-06T21:32:11.537Z,27.87
2023-05-06T21:34:38.409Z,33.20
2023-05-06T21:37:05.241Z,31.17
2023-05-06T21:39:32.027Z,29.90
2023-05-06T21:41:58.812Z,32.50
2023-05-06T21:44:25.576Z,33.17
2023-05-06T21:46:52.419Z,31.60
2023-05-06T21:49:21.208Z,28.00
2023-05-06T21:51:48.045Z,37.17
2023-05-06T21:54:15.144Z,33.77
2023-05-06T21:56:41.855Z,36.83
2023-05-06T21:59:08.834Z,27.53
2023-05-06T22:01:36.329Z,27.87
2023-05-06T22:04:09.337Z,31.50
2023-05-06T22:06:36.341Z,32.67
2023-05-06T22:09:04.449Z,39.13
2023-05-06T22:11:31.190Z,29.30
2023-05-06T22:13:57.967Z,31.13
2023-05-06T22:16:24.795Z,35.60
2023-05-06T22:18:51.871Z,36.13
2023-05-06T22:21:18.624Z,32.00
2023-05-06T22:23:45.526Z,30.87
2023-05-06T22:26:12.317Z,36.00
2023-05-06T22:28:39.067Z,30.57
2023-05-06T22:31:05.899Z,37.20
2023-05-06T22:33:32.799Z,34.83
2023-05-06T22:35:59.836Z,36.60
2023-05-06T22:38:26.606Z,34.80
2023-05-06T22:40:53.292Z,33.87
2023-05-06T22:43:20.096Z,34.37
2023-05-06T22:45:46.910Z,34.70
2023-05-06T22:48:13.729Z,38.07
2023-05-06T22:50:40.841Z,36.00
2023-05-06T22:53:14.956Z,36.83
2023-05-06T22:55:42.883Z,36.20
2023-05-06T22:58:09.678Z,36.27
2023-05-06T23:00:36.590Z,34.10
2023-05-06T23:03:03.562Z,31.93
2023-05-06T23:05:30.375Z,38.20
2023-05-06T23:07:57.154Z,33.53
2023-05-06T23:10:23.919Z,36.50
2023-05-06T23:12:50.749Z,34.57
2023-05-06T23:15:17.555Z,33.93
2023-05-06T23:17:44.252Z,38.90
2023-05-06T23:20:12.811Z,34.13
2023-05-06T23:22:39.696Z,33.30
2023-05-06T23:25:08.517Z,31.90
2023-05-06T23:27:37.581Z,35.43
2023-05-06T23:30:04.897Z,33.77
2023-05-06T23:32:32.873Z,36.07
2023-05-06T23:35:00.782Z,38.27
2023-05-06T23:37:27.875Z,38.63
2023-05-06T23:39:54.630Z,44.13
2023-05-06T23:42:21.771Z,36.30
2023-05-06T23:44:48.620Z,35.30
2023-05-06T23:47:15.378Z,41.33
2023-05-06T23:49:42.200Z,37.47
2023-05-06T23:52:09.336Z,36.23
2023-05-06T23:54:36.026Z,34.50
2023-05-06T23:57:02.855Z,34.10
2023-05-06T23:59:32.278Z,38.87
